createdAt,value
2022-12-18T00:01:20.105Z,47.77
2022-12-18T00:03:47.519Z,47.38
2022-12-18T00:06:15.607Z,51.63
2022-12-18T00:08:43.363Z,55.57
2022-12-18T00:11:14.058Z,59.78
2022-12-18T00:13:41.352Z,54.78
2022-12-18T00:16:11.924Z,54.65
2022-12-18T00:18:39.073Z,51.97
2022-12-18T00:21:08.629Z,53.67
2022-12-18T00:23:37.400Z,47.00
2022-12-18T00:26:11.893Z,54.33
2022-12-18T00:28:38.653Z,58.83
2022-12-18T00:31:08.035Z,52.78
2022-12-18T00:33:35.732Z,47.10
2022-12-18T00:36:27.096Z,42.15
2022-12-18T00:38:58.076Z,54.35
2022-12-18T00:41:44.565Z,53.28
2022-12-18T00:44:14.056Z,63.80
2022-12-18T00:46:41.395Z,42.95
2022-12-18T00:49:08.436Z,57.33
2022-12-18T00:51:35.833Z,52.43
2022-12-18T00:54:02.559Z,51.55
2022-12-18T00:56:29.292Z,49.15
2022-12-18T00:58:55.980Z,53.07
2022-12-18T01:01:22.894Z,55.35
2022-12-18T01:03:49.901Z,46.92
2022-12-18T01:06:17.506Z,53.10
2022-12-18T01:08:44.546Z,52.05
2022-12-18T01:11:19.503Z,57.70
2022-12-18T01:13:47.029Z,45.80
2022-12-18T01:16:15.351Z,49.90
2022-12-18T01:18:42.362Z,47.85
2022-12-18T01:21:11.501Z,56.40
2022-12-18T01:23:39.067Z,53.00
2022-12-18T01:26:11.484Z,53.08
2022-12-18T01:28:39.184Z,52.08
2022-12-18T01:31:20.622Z,56.13
2022-12-18T01:33:47.790Z,50.20
2022-12-18T01:36:20.105Z,49.25
2022-12-18T01:38:48.126Z,52.38
2022-12-18T01:41:17.283Z,53.77
2022-12-18T01:43:58.617Z,53.33
2022-12-18T01:46:26.455Z,56.42
2022-12-18T01:49:02.197Z,56.23
2022-12-18T01:51:31.644Z,34.20
2022-12-18T01:54:00.193Z,56.15
2022-12-18T01:56:27.272Z,50.13
2022-12-18T01:59:00.980Z,50.22
2022-12-18T02:01:28.178Z,54.28
2022-12-18T02:03:55.122Z,60.42
2022-12-18T02:06:29.592Z,48.07
2022-12-18T02:09:03.983Z,52.58
2022-12-18T02:11:47.201Z,45.53
2022-12-18T02:14:38.357Z,50.37
2022-12-18T02:17:08.965Z,49.00
2022-12-18T02:20:04.816Z,52.20
2022-12-18T02:22:47.198Z,43.45
2022-12-18T02:25:31.778Z,48.47
2022-12-18T02:28:01.413Z,55.22
2022-12-18T02:30:33.975Z,46.55
2022-12-18T02:33:04.902Z,50.13
2022-12-18T02:35:34.077Z,47.97
2022-12-18T02:38:04.141Z,45.13
2022-12-18T02:40:34.759Z,45.23
2022-12-18T02:43:14.259Z,49.22
2022-12-18T02:45:56.866Z,47.58
2022-12-18T02:48:29.039Z,46.38
2022-12-18T02:51:24.732Z,47.45
2022-12-18T02:54:10.039Z,44.88
2022-12-18T02:56:54.750Z,47.22
2022-12-18T02:59:48.549Z,46.00
2022-12-18T03:02:42.094Z,41.50
2022-12-18T03:05:21.002Z,45.20
2022-12-18T03:08:09.491Z,47.77
2022-12-18T03:10:46.428Z,47.05
2022-12-18T03:13:20.884Z,44.40
2022-12-18T03:15:51.876Z,42.30
2022-12-18T03:18:27.001Z,44.08
2022-12-18T03:20:56.670Z,36.53
2022-12-18T03:23:30.079Z,39.83
2022-12-18T03:26:07.166Z,38.93
2022-12-18T03:28:42.316Z,38.95
2022-12-18T03:31:12.454Z,40.15
2022-12-18T03:33:45.051Z,48.27
2022-12-18T03:36:11.930Z,41.78
2022-12-18T03:38:39.249Z,41.25
2022-12-18T03:41:30.512Z,41.20
2022-12-18T03:44:22.201Z,43.60
2022-12-18T03:47:10.769Z,45.78
2022-12-18T03:49:48.594Z,38.55
2022-12-18T03:52:28.332Z,39.00
2022-12-18T03:54:57.425Z,41.50
2022-12-18T03:57:28.383Z,38.40
2022-12-18T04:00:04.786Z,41.00
2022-12-18T04:02:46.034Z,38.97
2022-12-18T04:05:18.770Z,37.42
2022-12-18T04:07:48.537Z,33.50
2022-12-18T04:10:17.089Z,36.50
2022-12-18T04:12:44.110Z,32.70
2022-12-18T04:15:14.167Z,35.33
2022-12-18T04:17:50.031Z,31.30
2022-12-18T04:20:20.187Z,37.63
2022-12-18T04:22:47.761Z,35.63
2022-12-18T04:25:15.076Z,34.83
2022-12-18T04:27:54.144Z,37.83
2022-12-18T04:30:20.880Z,38.53
2022-12-18T04:32:52.186Z,30.10
2022-12-18T04:35:20.019Z,31.27
2022-12-18T04:37:47.269Z,32.65
2022-12-18T04:40:14.136Z,32.85
2022-12-18T04:42:46.060Z,35.93
2022-12-18T04:45:12.944Z,33.35
2022-12-18T04:47:39.690Z,31.45
2022-12-18T04:50:06.886Z,25.70
2022-12-18T04:52:33.630Z,29.17
2022-12-18T04:55:00.414Z,26.02
2022-12-18T04:57:27.199Z,26.90
2022-12-18T04:59:53.915Z,30.83
2022-12-18T05:02:20.776Z,27.88
2022-12-18T05:04:47.534Z,23.88
2022-12-18T05:07:14.302Z,31.77
2022-12-18T05:09:41.146Z,26.92
2022-12-18T05:12:08.436Z,25.98
2022-12-18T05:14:35.108Z,29.33
2022-12-18T05:17:01.811Z,29.48
2022-12-18T05:19:28.500Z,26.17
2022-12-18T05:21:55.256Z,27.27
2022-12-18T05:24:22.617Z,28.25
2022-12-18T05:26:49.613Z,27.10
2022-12-18T05:29:16.405Z,30.35
2022-12-18T05:31:43.220Z,23.93
2022-12-18T05:34:10.531Z,25.65
2022-12-18T05:36:38.151Z,21.23
2022-12-18T05:39:04.910Z,26.53
2022-12-18T05:41:32.871Z,25.55
2022-12-18T05:44:00.025Z,23.70
2022-12-18T05:46:27.775Z,26.85
2022-12-18T05:48:54.528Z,25.73
2022-12-18T05:51:23.246Z,26.05
2022-12-18T05:53:50.203Z,23.80
2022-12-18T05:56:21.948Z,23.30
2022-12-18T05:58:51.801Z,25.10
2022-12-18T06:01:22.040Z,25.95
2022-12-18T06:03:48.883Z,20.53
2022-12-18T06:06:27.025Z,26.63
2022-12-18T06:08:55.046Z,24.70
2022-12-18T06:11:25.844Z,26.33
2022-12-18T06:13:58.734Z,28.27
2022-12-18T06:16:27.473Z,26.02
2022-12-18T06:18:56.598Z,24.75
2022-12-18T06:21:23.293Z,25.80
2022-12-18T06:23:49.995Z,24.35
2022-12-18T06:26:16.947Z,24.02
2022-12-18T06:28:43.791Z,19.87
2022-12-18T06:31:11.587Z,23.95
2022-12-18T06:33:39.256Z,22.13
2022-12-18T06:36:11.485Z,23.13
2022-12-18T06:38:42.256Z,27.77
2022-12-18T06:41:14.843Z,23.15
2022-12-18T06:43:42.420Z,20.85
2022-12-18T06:46:09.948Z,25.53
2022-12-18T06:48:37.039Z,26.77
2022-12-18T06:51:04.407Z,23.23
2022-12-18T06:53:32.360Z,24.10
2022-12-18T06:56:10.346Z,25.10
2022-12-18T06:58:37.838Z,24.42
2022-12-18T07:01:06.777Z,26.13
2022-12-18T07:03:33.770Z,27.40
2022-12-18T07:06:00.662Z,23.33
2022-12-18T07:08:27.484Z,25.45
2022-12-18T07:10:56.391Z,26.73
2022-12-18T07:13:23.690Z,24.42
2022-12-18T07:15:50.700Z,22.73
2022-12-18T07:18:17.468Z,26.90
2022-12-18T07:20:45.071Z,24.70
2022-12-18T07:23:13.524Z,20.90
2022-12-18T07:25:40.679Z,24.95
2022-12-18T07:28:08.201Z,18.45
2022-12-18T07:30:39.283Z,23.80
2022-12-18T07:33:06.095Z,20.48
2022-12-18T07:35:34.955Z,26.07
2022-12-18T07:38:01.702Z,24.02
2022-12-18T07:40:28.388Z,22.63
2022-12-18T07:42:55.085Z,22.57
2022-12-18T07:45:21.765Z,21.85
2022-12-18T07:47:48.451Z,19.55
2022-12-18T07:50:15.494Z,22.95
2022-12-18T07:52:42.170Z,22.55
2022-12-18T07:55:09.249Z,23.42
2022-12-18T07:57:53.427Z,19.25
2022-12-18T08:00:22.341Z,17.53
2022-12-18T08:02:49.145Z,23.83
2022-12-18T08:05:15.997Z,19.83
2022-12-18T08:07:42.915Z,17.17
2022-12-18T08:10:09.812Z,19.63
2022-12-18T08:12:36.512Z,17.17
2022-12-18T08:15:03.351Z,20.65
2022-12-18T08:17:30.553Z,18.95
2022-12-18T08:19:57.379Z,18.70
2022-12-18T08:22:24.118Z,20.23
2022-12-18T08:24:51.165Z,19.77
2022-12-18T08:27:29.283Z,22.20
2022-12-18T08:29:57.667Z,22.25
2022-12-18T08:32:25.767Z,21.37
2022-12-18T08:34:52.559Z,20.02
2022-12-18T08:37:19.427Z,26.58
2022-12-18T08:39:46.495Z,29.80
2022-12-18T08:42:31.672Z,26.85
2022-12-18T08:44:58.401Z,20.20
2022-12-18T08:47:26.817Z,19.17
2022-12-18T08:49:53.878Z,17.97
2022-12-18T08:52:20.567Z,22.63
2022-12-18T08:54:47.246Z,20.45
2022-12-18T08:57:14.015Z,24.03
2022-12-18T08:59:40.689Z,19.63
2022-12-18T09:02:09.029Z,20.42
2022-12-18T09:04:35.959Z,17.17
2022-12-18T09:07:02.827Z,19.70
2022-12-18T09:09:29.639Z,22.90
2022-12-18T09:11:56.333Z,18.75
2022-12-18T09:14:23.064Z,20.43
2022-12-18T09:16:49.890Z,22.02
2022-12-18T09:19:16.656Z,20.15
2022-12-18T09:21:48.082Z,20.83
2022-12-18T09:24:16.814Z,21.98
2022-12-18T09:26:47.447Z,21.67
2022-12-18T09:29:15.790Z,19.75
2022-12-18T09:31:44.578Z,20.67
2022-12-18T09:34:11.313Z,16.92
2022-12-18T09:36:39.016Z,19.08
2022-12-18T09:39:08.597Z,15.87
2022-12-18T09:41:51.111Z,17.33
2022-12-18T09:44:46.917Z,18.55
2022-12-18T09:47:24.476Z,15.73
2022-12-18T09:49:56.276Z,16.63
2022-12-18T09:52:30.376Z,20.13
2022-12-18T09:55:25.549Z,21.83
2022-12-18T09:58:06.829Z,18.55
2022-12-18T10:00:34.621Z,16.25
2022-12-18T10:03:10.095Z,14.85
2022-12-18T10:05:54.830Z,14.40
2022-12-18T10:08:27.628Z,17.50
2022-12-18T10:11:01.974Z,13.73
2022-12-18T10:13:34.588Z,20.63
2022-12-18T10:16:18.646Z,17.20
2022-12-18T10:18:54.356Z,17.10
2022-12-18T10:21:31.395Z,20.25
2022-12-18T10:24:14.462Z,18.73
2022-12-18T10:26:42.585Z,14.65
2022-12-18T10:29:14.112Z,16.83
2022-12-18T10:31:41.095Z,18.50
2022-12-18T10:34:12.720Z,15.38
2022-12-18T10:36:39.674Z,18.90
2022-12-18T10:39:23.244Z,15.80
2022-12-18T10:41:50.037Z,15.07
2022-12-18T10:44:25.320Z,18.88
2022-12-18T10:46:56.967Z,16.00
2022-12-18T10:49:28.043Z,15.38
2022-12-18T10:52:21.815Z,15.82
2022-12-18T10:54:53.617Z,17.48
2022-12-18T10:57:33.558Z,20.43
2022-12-18T11:00:14.264Z,18.52
2022-12-18T11:02:41.138Z,15.98
2022-12-18T11:05:28.882Z,15.33
2022-12-18T11:07:56.295Z,14.85
2022-12-18T11:10:47.625Z,16.77
2022-12-18T11:13:21.615Z,13.73
2022-12-18T11:15:48.972Z,13.63
2022-12-18T11:18:21.159Z,15.48
2022-12-18T11:21:00.541Z,14.35
2022-12-18T11:23:28.090Z,14.93
2022-12-18T11:25:58.953Z,16.75
2022-12-18T11:28:38.415Z,16.15
2022-12-18T11:31:28.472Z,18.90
2022-12-18T11:36:49.533Z,16.90
2022-12-18T11:39:34.396Z,19.10
2022-12-18T11:42:10.765Z,17.60
2022-12-18T11:44:51.030Z,15.18
2022-12-18T11:47:50.581Z,16.65
2022-12-18T11:50:24.852Z,17.27
2022-12-18T11:52:57.313Z,18.90
2022-12-18T11:55:36.551Z,14.95
2022-12-18T11:58:31.664Z,13.60
2022-12-18T12:01:26.323Z,13.50
2022-12-18T12:04:25.434Z,14.30
2022-12-18T12:07:10.828Z,11.30
2022-12-18T12:10:18.782Z,14.20
2022-12-18T12:12:55.666Z,18.80
2022-12-18T12:15:36.669Z,17.98
2022-12-18T12:18:22.111Z,15.87
2022-12-18T12:21:04.961Z,14.02
2022-12-18T12:23:40.885Z,15.18
2022-12-18T12:26:09.780Z,14.37
2022-12-18T12:29:01.704Z,16.70
2022-12-18T12:31:50.545Z,13.65
2022-12-18T12:34:25.576Z,16.50
2022-12-18T12:37:13.131Z,18.85
2022-12-18T12:39:44.759Z,22.23
2022-12-18T12:42:43.001Z,14.13
2022-12-18T12:45:31.519Z,15.77
2022-12-18T12:47:59.992Z,26.52
2022-12-18T12:50:27.252Z,15.60
2022-12-18T12:52:56.637Z,16.50
2022-12-18T12:55:25.977Z,16.48
2022-12-18T12:58:07.445Z,14.63
2022-12-18T13:00:57.932Z,16.17
2022-12-18T13:03:49.599Z,15.43
2022-12-18T13:06:26.189Z,18.13
2022-12-18T13:09:04.239Z,16.48
2022-12-18T13:14:45.833Z,14.90
2022-12-18T13:17:22.552Z,14.95
2022-12-18T13:19:51.400Z,22.90
2022-12-18T13:22:43.468Z,18.25
2022-12-18T13:25:30.236Z,13.43
2022-12-18T13:28:15.363Z,18.80
2022-12-18T13:30:44.703Z,19.60
2022-12-18T13:33:23.271Z,18.02
2022-12-18T13:35:54.614Z,16.55
2022-12-18T13:38:33.440Z,12.87
2022-12-18T13:41:16.050Z,17.75
2022-12-18T13:43:48.140Z,17.27
2022-12-18T13:46:22.168Z,17.33
2022-12-18T13:48:56.915Z,16.65
2022-12-18T13:51:25.068Z,18.70
2022-12-18T13:54:13.416Z,14.02
2022-12-18T13:56:46.154Z,17.58
2022-12-18T13:59:13.762Z,19.85
2022-12-18T14:01:46.225Z,16.48
2022-12-18T14:04:20.812Z,20.77
2022-12-18T14:06:50.079Z,24.75
2022-12-18T14:09:29.539Z,20.27
2022-12-18T14:12:18.479Z,16.97
2022-12-18T14:14:48.771Z,18.27
2022-12-18T14:17:17.148Z,19.45
2022-12-18T14:19:51.253Z,19.58
2022-12-18T14:22:30.414Z,18.95
2022-12-18T14:25:20.925Z,22.23
2022-12-18T14:27:51.259Z,18.52
2022-12-18T14:30:25.525Z,17.30
2022-12-18T14:33:27.880Z,18.98
2022-12-18T14:36:01.398Z,15.50
2022-12-18T14:38:38.141Z,17.90
2022-12-18T14:41:12.736Z,22.85
2022-12-18T14:43:41.946Z,19.88
2022-12-18T14:46:43.505Z,17.88
2022-12-18T14:49:32.388Z,20.85
2022-12-18T14:52:07.876Z,17.75
2022-12-18T14:54:38.132Z,16.83
2022-12-18T14:57:21.983Z,19.60
2022-12-18T14:59:48.892Z,17.50
2022-12-18T15:02:15.833Z,20.17
2022-12-18T15:04:44.661Z,24.57
2022-12-18T15:07:22.643Z,18.85
2022-12-18T15:10:31.919Z,19.52
2022-12-18T15:13:03.361Z,20.48
2022-12-18T15:15:36.949Z,17.13
2022-12-18T15:18:09.722Z,19.63
2022-12-18T15:20:55.796Z,21.00
2022-12-18T15:23:24.231Z,16.73
2022-12-18T15:26:05.109Z,17.75
2022-12-18T15:28:37.778Z,18.10
2022-12-18T15:31:14.708Z,19.93
2022-12-18T15:33:47.033Z,18.85
2022-12-18T15:36:18.047Z,22.13
2022-12-18T15:38:53.411Z,20.83
2022-12-18T15:41:24.757Z,18.92
2022-12-18T15:43:53.601Z,19.27
2022-12-18T15:46:26.033Z,24.02
2022-12-18T15:48:59.762Z,22.07
2022-12-18T15:51:35.431Z,19.73
2022-12-18T15:54:06.946Z,23.70
2022-12-18T15:56:52.547Z,19.83
2022-12-18T15:59:20.844Z,19.75
2022-12-18T16:01:50.089Z,22.70
2022-12-18T16:04:22.836Z,19.85
2022-12-18T16:09:37.980Z,20.88
2022-12-18T16:12:06.079Z,21.42
2022-12-18T16:14:32.960Z,20.43
2022-12-18T16:17:02.142Z,19.65
2022-12-18T16:19:29.331Z,21.73
2022-12-18T16:21:58.024Z,19.10
2022-12-18T16:24:30.190Z,23.77
2022-12-18T16:27:00.159Z,19.75
2022-12-18T16:29:29.077Z,19.50
2022-12-18T16:32:00.446Z,24.58
2022-12-18T16:34:36.098Z,22.00
2022-12-18T16:37:06.707Z,22.38
2022-12-18T16:39:37.995Z,22.60
2022-12-18T16:42:15.366Z,22.90
2022-12-18T16:44:42.816Z,24.42
2022-12-18T16:47:10.321Z,22.27
2022-12-18T16:49:40.018Z,20.30
2022-12-18T16:52:08.050Z,21.50
2022-12-18T16:54:36.490Z,26.05
2022-12-18T16:57:05.232Z,24.85
2022-12-18T16:59:32.468Z,22.58
2022-12-18T17:01:59.252Z,19.48
2022-12-18T17:04:26.153Z,23.70
2022-12-18T17:06:53.885Z,24.23
2022-12-18T17:09:25.417Z,23.35
2022-12-18T17:11:53.435Z,23.43
2022-12-18T17:14:22.332Z,23.15
2022-12-18T17:17:07.367Z,21.27
2022-12-18T17:19:36.136Z,25.35
2022-12-18T17:22:04.328Z,26.35
2022-12-18T17:24:34.752Z,24.58
2022-12-18T17:27:02.888Z,24.88
2022-12-18T17:29:29.667Z,25.93
2022-12-18T17:31:57.227Z,23.70
2022-12-18T17:34:25.378Z,25.73
2022-12-18T17:36:52.115Z,24.00
2022-12-18T17:39:20.745Z,25.58
2022-12-18T17:41:48.721Z,24.95
2022-12-18T17:44:16.765Z,22.85
2022-12-18T17:46:46.027Z,29.50
2022-12-18T17:49:13.271Z,26.42
2022-12-18T17:51:42.157Z,25.73
2022-12-18T17:54:09.283Z,24.70
2022-12-18T17:56:36.154Z,22.63
2022-12-18T17:59:02.983Z,27.15
2022-12-18T18:01:29.916Z,29.57
2022-12-18T18:03:56.843Z,24.48
2022-12-18T18:06:24.117Z,28.35
2022-12-18T18:08:50.996Z,27.80
2022-12-18T18:11:38.971Z,24.80
2022-12-18T18:14:11.740Z,25.55
2022-12-18T18:16:42.586Z,27.48
2022-12-18T18:19:12.487Z,23.33
2022-12-18T18:21:41.898Z,25.23
2022-12-18T18:24:10.752Z,29.52
2022-12-18T18:26:38.023Z,26.90
2022-12-18T18:29:06.539Z,26.50
2022-12-18T18:31:41.193Z,24.95
2022-12-18T18:34:13.669Z,27.63
2022-12-18T18:36:40.381Z,24.60
2022-12-18T18:39:07.616Z,25.17
2022-12-18T18:41:36.251Z,29.70
2022-12-18T18:44:03.095Z,24.37
2022-12-18T18:46:29.973Z,26.42
2022-12-18T18:48:56.799Z,25.77
2022-12-18T18:51:23.907Z,26.80
2022-12-18T18:53:52.382Z,19.33
2022-12-18T18:59:08.501Z,23.45
2022-12-18T19:01:35.436Z,25.00
2022-12-18T19:04:02.378Z,25.08
2022-12-18T19:06:29.410Z,25.20
2022-12-18T19:08:57.668Z,26.73
2022-12-18T19:11:44.089Z,26.02
2022-12-18T19:14:13.868Z,25.50
2022-12-18T19:16:41.451Z,24.57
2022-12-18T19:19:08.463Z,23.00
2022-12-18T19:21:37.314Z,27.17
2022-12-18T19:24:04.471Z,28.65
2022-12-18T19:26:31.204Z,26.30
2022-12-18T19:29:03.203Z,23.30
2022-12-18T19:31:35.173Z,25.63
2022-12-18T19:34:07.205Z,24.20
2022-12-18T19:36:36.040Z,24.02
2022-12-18T19:39:09.936Z,23.00
2022-12-18T19:41:36.826Z,24.25
2022-12-18T19:44:07.945Z,24.85
2022-12-18T19:46:36.089Z,26.15
2022-12-18T19:49:06.320Z,24.02
2022-12-18T19:51:33.021Z,25.33
2022-12-18T19:54:01.883Z,27.35
2022-12-18T19:56:33.815Z,26.85
2022-12-18T19:59:01.480Z,30.88
2022-12-18T20:01:29.547Z,26.80
2022-12-18T20:03:58.258Z,27.38
2022-12-18T20:06:33.158Z,26.25
2022-12-18T20:09:03.223Z,27.52
2022-12-18T20:11:31.239Z,23.53
2022-12-18T20:14:02.618Z,26.80
2022-12-18T20:16:29.722Z,27.45
2022-12-18T20:18:57.627Z,26.73
2022-12-18T20:21:25.741Z,27.80
2022-12-18T20:23:53.027Z,24.90
2022-12-18T20:26:19.764Z,25.60
2022-12-18T20:28:46.607Z,30.55
2022-12-18T20:31:14.197Z,27.83
2022-12-18T20:33:42.414Z,25.65
2022-12-18T20:36:14.318Z,26.67
2022-12-18T20:38:42.397Z,26.27
2022-12-18T20:41:16.698Z,28.08
2022-12-18T20:43:44.105Z,30.17
2022-12-18T20:46:13.463Z,30.20
2022-12-18T20:48:40.447Z,27.43
2022-12-18T20:51:10.485Z,36.63
2022-12-18T20:53:38.843Z,28.23
2022-12-18T20:56:14.708Z,29.20
2022-12-18T20:58:44.886Z,27.17
2022-12-18T21:01:15.079Z,26.40
2022-12-18T21:03:43.353Z,27.23
2022-12-18T21:06:10.749Z,26.77
2022-12-18T21:08:38.329Z,28.67
2022-12-18T21:11:39.034Z,29.90
2022-12-18T21:14:11.941Z,28.95
2022-12-18T21:16:40.006Z,24.15
2022-12-18T21:19:06.888Z,27.23
2022-12-18T21:21:35.654Z,29.63
2022-12-18T21:24:06.407Z,32.07
2022-12-18T21:26:33.444Z,28.95
2022-12-18T21:29:03.076Z,27.67
2022-12-18T21:31:32.232Z,31.73
2022-12-18T21:34:02.387Z,30.10
2022-12-18T21:36:30.765Z,30.70
2022-12-18T21:38:58.409Z,26.52
2022-12-18T21:41:44.629Z,30.47
2022-12-18T21:44:14.697Z,27.40
2022-12-18T21:46:44.407Z,30.65
2022-12-18T21:49:14.504Z,28.10
2022-12-18T21:51:41.603Z,31.05
2022-12-18T21:54:08.369Z,27.63
2022-12-18T21:56:47.045Z,30.95
2022-12-18T21:59:25.121Z,28.87
2022-12-18T22:01:54.256Z,33.88
2022-12-18T22:04:22.127Z,35.38
2022-12-18T22:06:49.420Z,33.60
2022-12-18T22:09:19.467Z,31.90
2022-12-18T22:11:46.876Z,30.15
2022-12-18T22:14:14.745Z,25.75
2022-12-18T22:16:42.634Z,32.50
2022-12-18T22:19:11.374Z,29.48
2022-12-18T22:21:40.644Z,30.23
2022-12-18T22:24:22.017Z,29.33
2022-12-18T22:26:50.238Z,28.48
2022-12-18T22:29:42.724Z,28.90
2022-12-18T22:32:15.702Z,30.60
2022-12-18T22:34:43.267Z,23.27
2022-12-18T22:37:12.276Z,25.17
2022-12-18T22:39:39.948Z,27.60
2022-12-18T22:42:08.794Z,30.80
2022-12-18T22:44:35.819Z,30.45
2022-12-18T22:47:06.511Z,30.10
2022-12-18T22:49:35.364Z,24.60
2022-12-18T22:52:03.932Z,28.70
2022-12-18T22:54:30.678Z,27.58
2022-12-18T22:56:57.443Z,26.85
2022-12-18T22:59:24.629Z,30.80
2022-12-18T23:01:52.971Z,32.67
2022-12-18T23:04:32.178Z,29.30
2022-12-18T23:07:04.573Z,27.23
2022-12-18T23:09:31.693Z,30.20
2022-12-18T23:11:58.423Z,27.58
2022-12-18T23:14:25.144Z,30.42
2022-12-18T23:16:52.273Z,30.48
2022-12-18T23:19:20.460Z,30.73
2022-12-18T23:21:47.301Z,28.42
2022-12-18T23:24:14.980Z,31.05
2022-12-18T23:26:43.041Z,33.22
2022-12-18T23:29:10.027Z,30.55
2022-12-18T23:31:39.060Z,31.30
2022-12-18T23:34:07.121Z,33.40
2022-12-18T23:36:45.715Z,32.50
2022-12-18T23:39:25.401Z,31.27
2022-12-18T23:42:00.081Z,27.75
2022-12-18T23:44:27.186Z,33.05
2022-12-18T23:46:54.090Z,30.15
2022-12-18T23:49:20.972Z,32.13
2022-12-18T23:51:48.131Z,33.03
2022-12-18T23:54:15.167Z,30.33
2022-12-18T23:56:42.193Z,31.85
2022-12-18T23:59:09.168Z,32.92
